Terminal Aerodrome Forecast
Issued by NWS Louisville, KY

Home | Current Version | Previous Version | Text Only | Print | Product List | Glossary On
Versions: 1 2 3 4 5 6 7 8 9 10 11 12 13 14 15 16 17 18 19 20
000
FTUS43 KLMK 022125 AAA
TAFBWG
TAF AMD
KBWG 022125Z 0221/0318 32005KT P6SM BKN010
      TEMPO 0221/0223 SCT010 BKN060
     FM022300 32004KT P6SM SCT025 BKN100
      TEMPO 0302/0306 BKN022
     FM030600 VRB03KT 4SM BR BKN015
     FM031300 31006KT P6SM BKN025=

USA.gov is the U.S. government's official web portal to all federal, state and local government web resources and services.